Time;durP1;ratioP1;P1;durP2;ratioP2;P2;SDS_P1;SDS_P2;PMS_P1;PMS_P2;Temp;Humidity;BMP_temperature;BMP_pressure;BME280_temperature;BME280_humidity;BME280_pressure;Samples;Min_cycle;Max_cycle;Signal;HPM_P1;HPM_P2
2021/07/02 00:02:17;;;;;;;15.40;9.30;;;;;;;15.42;100.00;100561.41;5115577;28;20651;-70
2021/07/02 00:04:42;;;;;;;18.13;10.47;;;;;;;15.43;100.00;100555.06;5097498;28;20197;-69
2021/07/02 00:07:07;;;;;;;15.20;9.70;;;;;;;15.42;100.00;100556.03;5097614;28;20177;-69
2021/07/02 00:09:33;;;;;;;13.33;9.20;;;;;;;15.38;100.00;100551.88;5097353;28;20685;-70
2021/07/02 00:11:58;;;;;;;15.37;10.30;;;;;;;15.40;100.00;100555.28;5097572;28;20270;-70
2021/07/02 00:14:24;;;;;;;13.77;9.80;;;;;;;15.37;100.00;100551.00;5080413;28;20193;-69
2021/07/02 00:16:49;;;;;;;17.93;10.20;;;;;;;15.36;100.00;100548.44;5097289;28;20694;-70
2021/07/02 00:19:14;;;;;;;15.57;9.67;;;;;;;15.33;100.00;100555.78;5097170;28;20174;-69
2021/07/02 00:21:40;;;;;;;17.53;9.83;;;;;;;15.36;100.00;100554.69;5097156;28;20707;-70
2021/07/02 00:24:05;;;;;;;17.27;10.23;;;;;;;15.40;100.00;100552.59;5097349;28;20202;-70
2021/07/02 00:26:31;;;;;;;12.13;9.27;;;;;;;15.36;100.00;100548.44;5096904;28;20174;-70
2021/07/02 00:28:56;;;;;;;22.10;10.30;;;;;;;15.37;100.00;100548.31;5096695;28;20210;-70
2021/07/02 00:31:21;;;;;;;17.47;9.40;;;;;;;15.37;100.00;100544.78;5096406;28;20181;-69
2021/07/02 00:33:46;;;;;;;14.07;9.80;;;;;;;15.35;100.00;100541.34;5114823;28;20215;-70
2021/07/02 00:36:12;;;;;;;15.90;9.53;;;;;;;15.35;100.00;100533.28;5114655;28;20170;-69
2021/07/02 00:38:37;;;;;;;18.60;9.23;;;;;;;15.36;100.00;100543.91;5096589;28;20577;-70
2021/07/02 00:41:02;;;;;;;14.63;9.77;;;;;;;15.39;100.00;100540.13;5096543;28;20189;-70
2021/07/02 00:43:28;;;;;;;16.83;9.70;;;;;;;15.35;100.00;100542.22;5114640;28;20185;-70
2021/07/02 00:45:53;;;;;;;14.37;8.90;;;;;;;15.35;100.00;100541.34;5096090;28;20185;-69
2021/07/02 00:48:18;;;;;;;14.57;9.67;;;;;;;15.35;100.00;100542.22;5115723;28;20538;-70
2021/07/02 00:50:46;;;;;;;16.17;9.10;;;;;;;15.37;100.00;100548.31;5096878;28;20217;-69
2021/07/02 00:53:12;;;;;;;14.10;8.80;;;;;;;15.36;100.00;100548.44;5114793;28;20243;-70
2021/07/02 00:55:38;;;;;;;18.10;9.60;;;;;;;15.33;100.00;100553.09;5096362;28;20231;-69
2021/07/02 00:58:04;;;;;;;11.87;8.87;;;;;;;15.30;100.00;100553.31;5096597;28;20182;-69
2021/07/02 01:00:29;;;;;;;20.87;9.23;;;;;;;15.31;100.00;100555.03;5096475;28;20189;-71
2021/07/02 01:02:55;;;;;;;19.10;9.57;;;;;;;15.29;100.00;100556.97;5097414;28;20182;-69
2021/07/02 01:05:20;;;;;;;14.27;8.23;;;;;;;15.22;100.00;100550.34;5098144;28;20202;-70
2021/07/02 01:07:46;;;;;;;18.80;8.40;;;;;;;15.18;100.00;100565.00;5096845;28;20174;-70
2021/07/02 01:10:14;;;;;;;16.53;9.47;;;;;;;15.20;100.00;100559.50;5114049;28;20189;-69
2021/07/02 01:12:40;;;;;;;22.93;10.47;;;;;;;15.22;100.00;100552.16;5096323;28;20197;-69
2021/07/02 01:15:06;;;;;;;12.33;8.83;;;;;;;15.22;100.00;100558.41;5078707;28;20173;-70
2021/07/02 01:17:31;;;;;;;15.23;9.03;;;;;;;15.23;100.00;100559.25;5096072;28;20664;-69
2021/07/02 01:19:58;;;;;;;20.60;9.63;;;;;;;15.19;100.00;100541.66;5113966;28;20201;-70
2021/07/02 01:22:26;;;;;;;15.23;9.30;;;;;;;15.14;100.00;100552.75;5096179;28;20588;-70
2021/07/02 01:24:55;;;;;;;15.47;9.03;;;;;;;15.14;100.00;100554.59;5095786;28;20318;-70
2021/07/02 01:27:21;;;;;;;18.13;9.07;;;;;;;15.09;100.00;100548.72;5114079;28;20208;-70
2021/07/02 01:29:47;;;;;;;15.03;8.60;;;;;;;15.08;100.00;100539.78;5095986;28;20189;-69
2021/07/02 01:32:16;;;;;;;17.03;8.37;;;;;;;15.08;100.00;100552.38;5096018;28;20165;-70
2021/07/02 01:34:42;;;;;;;12.90;8.90;;;;;;;15.07;100.00;100564.09;5079108;28;20188;-70
2021/07/02 01:37:08;;;;;;;17.60;8.83;;;;;;;15.07;100.00;100561.41;5114161;28;20264;-69
2021/07/02 01:39:34;;;;;;;18.47;9.10;;;;;;;15.04;100.00;100556.28;5095602;28;20264;-69
2021/07/02 01:41:59;;;;;;;13.90;9.13;;;;;;;15.01;100.00;100566.28;5095342;28;20173;-70
2021/07/02 01:44:24;;;;;;;13.33;8.73;;;;;;;14.98;100.00;100561.16;5095742;28;20196;-69
2021/07/02 01:46:50;;;;;;;18.00;8.33;;;;;;;14.99;100.00;100556.63;5113953;28;20554;-69
2021/07/02 01:49:15;;;;;;;16.93;8.37;;;;;;;14.98;100.00;100554.91;5113535;28;20178;-70
2021/07/02 01:51:41;;;;;;;16.37;9.30;;;;;;;14.95;100.00;100565.91;5095683;28;20184;-69
2021/07/02 01:54:06;;;;;;;15.43;8.23;;;;;;;14.93;100.00;100567.84;5095632;28;20165;-69
2021/07/02 01:56:31;;;;;;;15.53;8.47;;;;;;;14.96;100.00;100568.47;5113847;28;20199;-69
2021/07/02 01:58:57;;;;;;;20.83;9.33;;;;;;;14.95;100.00;100563.22;5098153;28;20178;-69
2021/07/02 02:01:23;;;;;;;14.33;8.50;;;;;;;14.94;100.00;100566.88;5117932;28;20181;-69
2021/07/02 02:03:48;;;;;;;11.33;7.83;;;;;;;15.00;100.00;100561.03;5118022;28;20284;-71
2021/07/02 02:06:14;;;;;;;19.73;8.77;;;;;;;14.97;100.00;100569.31;5117775;28;20181;-70
2021/07/02 02:08:39;;;;;;;18.30;7.97;;;;;;;14.92;100.00;100571.50;5117779;28;20181;-70
2021/07/02 02:11:04;;;;;;;14.97;7.53;;;;;;;14.94;100.00;100566.88;5117469;28;20197;-69
2021/07/02 02:13:30;;;;;;;21.57;8.10;;;;;;;14.87;100.00;100573.69;5118349;28;20170;-69
2021/07/02 02:15:55;;;;;;;17.43;8.00;;;;;;;14.82;100.00;100579.38;5099667;28;20173;-69
2021/07/02 02:18:21;;;;;;;21.87;8.77;;;;;;;14.74;100.00;100573.72;5099412;28;20587;-70
2021/07/02 02:20:47;;;;;;;17.93;8.17;;;;;;;14.73;100.00;100574.69;5099479;28;20233;-70
2021/07/02 02:23:13;;;;;;;19.97;8.10;;;;;;;14.72;100.00;100567.59;5117855;28;20177;-70
2021/07/02 02:25:38;;;;;;;17.53;8.50;;;;;;;14.73;100.00;100571.16;5099571;28;20262;-70
2021/07/02 02:28:03;;;;;;;14.83;8.17;;;;;;;14.64;100.00;100578.91;5117941;28;20184;-70
2021/07/02 02:30:29;;;;;;;16.53;8.80;;;;;;;14.67;100.00;100585.91;5099596;28;20201;-70
2021/07/02 02:32:54;;;;;;;20.37;8.83;;;;;;;14.66;100.00;100593.09;5082222;28;20591;-69
2021/07/02 02:35:19;;;;;;;22.10;7.57;;;;;;;14.66;100.00;100587.72;5098966;28;20219;-69
2021/07/02 02:37:44;;;;;;;17.13;8.17;;;;;;;14.60;100.00;100592.69;5117241;28;20196;-69
2021/07/02 02:40:10;;;;;;;16.37;8.63;;;;;;;14.52;100.00;100595.94;5098797;28;20205;-69
2021/07/02 02:42:36;;;;;;;17.70;8.50;;;;;;;14.59;100.00;100596.34;5117152;28;20193;-69
2021/07/02 02:45:01;;;;;;;21.60;7.97;;;;;;;14.72;100.00;100596.28;5098645;28;20219;-70
2021/07/02 02:47:26;;;;;;;17.53;8.27;;;;;;;14.69;100.00;100598.25;5081559;28;20185;-69
2021/07/02 02:49:52;;;;;;;20.13;8.17;;;;;;;14.77;100.00;100594.13;5081479;28;20223;-70
2021/07/02 02:52:17;;;;;;;24.13;9.20;;;;;;;14.77;100.00;100604.88;5117341;28;20177;-69
2021/07/02 02:54:42;;;;;;;16.87;9.33;;;;;;;14.81;100.00;100600.97;5098657;28;20181;-69
2021/07/02 02:57:08;;;;;;;20.13;7.87;;;;;;;14.85;100.00;100603.31;5098878;28;20181;-69
2021/07/02 02:59:37;;;;;;;21.87;7.90;;;;;;;14.87;100.00;100603.25;5098123;28;20628;-69
2021/07/02 03:02:06;;;;;;;15.47;7.77;;;;;;;14.84;100.00;100598.91;5098059;28;20181;-68
2021/07/02 03:04:33;;;;;;;17.17;8.00;;;;;;;14.88;100.00;100599.56;5080950;28;20242;-70
2021/07/02 03:06:59;;;;;;;26.83;8.57;;;;;;;14.92;100.00;100598.38;5098177;28;20264;-70
2021/07/02 03:09:24;;;;;;;27.17;10.00;;;;;;;14.88;100.00;100605.81;5115502;28;20217;-69
2021/07/02 03:11:52;;;;;;;22.07;8.77;;;;;;;14.90;100.00;100600.31;5097745;28;20178;-69
2021/07/02 03:14:21;;;;;;;22.63;8.63;;;;;;;14.90;100.00;100605.69;5099252;28;20587;-70
2021/07/02 03:16:50;;;;;;;19.30;8.30;;;;;;;14.91;100.00;100610.09;5117840;28;20174;-70
2021/07/02 03:19:15;;;;;;;21.53;8.83;;;;;;;14.99;100.00;100605.00;5116623;28;20203;-69
2021/07/02 03:21:41;;;;;;;16.90;7.70;;;;;;;14.98;100.00;100603.28;5116557;28;20176;-70
2021/07/02 03:24:07;;;;;;;18.87;8.20;;;;;;;14.92;100.00;100604.59;5097629;28;20603;-71
2021/07/02 03:26:32;;;;;;;19.07;7.93;;;;;;;14.95;100.00;100609.75;5097496;28;20176;-69
2021/07/02 03:28:58;;;;;;;18.57;8.83;;;;;;;15.03;100.00;100603.78;5097636;28;20653;-70
2021/07/02 03:31:23;;;;;;;20.87;7.60;;;;;;;15.13;100.00;100607.50;5097438;28;20200;-69
2021/07/02 03:33:48;;;;;;;15.57;7.90;;;;;;;15.12;100.00;100608.47;5115680;28;20174;-69
2021/07/02 03:36:14;;;;;;;15.43;8.33;;;;;;;15.15;100.00;100616.31;5115695;28;20174;-69
2021/07/02 03:38:39;;;;;;;22.43;11.43;;;;;;;15.09;100.00;100605.16;5097837;28;20177;-69
2021/07/02 03:41:04;;;;;;;29.23;14.07;;;;;;;15.12;100.00;100608.47;5098006;28;20250;-69
2021/07/02 03:43:30;;;;;;;28.83;13.87;;;;;;;15.09;100.00;100608.72;5098049;28;20174;-69
2021/07/02 03:45:55;;;;;;;16.50;7.30;;;;;;;15.14;100.00;100609.22;5115434;28;20197;-68
2021/07/02 03:48:20;;;;;;;15.37;8.10;;;;;;;15.12;100.00;100604.94;5097550;28;20637;-69
2021/07/02 03:50:45;;;;;;;21.80;9.67;;;;;;;15.08;100.00;100614.19;5115554;28;20197;-70
2021/07/02 03:53:11;;;;;;;17.27;9.10;;;;;;;14.97;100.00;100623.94;5115679;28;20178;-69
2021/07/02 03:55:36;;;;;;;18.43;8.80;;;;;;;14.98;100.00;100622.97;5115362;28;20173;-70
2021/07/02 03:58:03;;;;;;;22.13;10.73;;;;;;;15.00;100.00;100622.84;5115482;28;20657;-70
2021/07/02 04:00:28;;;;;;;20.83;10.00;;;;;;;15.00;100.00;100626.38;5080200;28;20228;-70
2021/07/02 04:02:54;;;;;;;14.90;7.87;;;;;;;15.05;100.00;100625.19;5096930;28;20637;-69
2021/07/02 04:05:20;;;;;;;25.80;11.10;;;;;;;15.12;100.00;100627.28;5115321;28;20200;-69
2021/07/02 04:07:45;;;;;;;24.13;8.93;;;;;;;15.29;100.00;100629.59;5115098;28;20173;-69
2021/07/02 04:10:10;;;;;;;18.00;8.33;;;;;;;15.37;100.00;100636.22;5114961;28;20201;-69
2021/07/02 04:12:36;;;;;;;28.67;10.60;;;;;;;15.43;100.00;100633.03;5096934;28;20720;-69
2021/07/02 04:15:01;;;;;;;23.53;11.13;;;;;;;15.47;100.00;100647.97;5096725;28;20170;-70
2021/07/02 04:17:26;;;;;;;23.23;11.77;;;;;;;15.49;100.00;100646.03;5096806;28;20173;-70
2021/07/02 04:19:52;;;;;;;17.33;7.20;;;;;;;15.49;100.00;100652.25;5136056;22;20638;-73
2021/07/02 04:22:17;;;;;;;15.20;7.93;;;;;;;15.51;100.00;100649.44;5079073;28;20197;-73
2021/07/02 04:24:43;;;;;;;20.63;7.57;;;;;;;15.51;100.00;100650.31;5096550;28;20205;-73
2021/07/02 04:27:08;;;;;;;14.53;7.53;;;;;;;15.65;100.00;100661.91;5079852;28;20250;-73
2021/07/02 04:29:33;;;;;;;15.97;7.10;;;;;;;15.73;100.00;100654.94;5096726;28;20173;-73
2021/07/02 04:31:59;;;;;;;17.90;7.33;;;;;;;15.72;100.00;100649.69;5096653;28;20542;-73
2021/07/02 04:34:24;;;;;;;20.57;8.10;;;;;;;15.81;100.00;100654.34;5079866;28;20177;-73
2021/07/02 04:36:49;;;;;;;17.13;7.63;;;;;;;15.93;100.00;100648.84;5079507;28;20177;-73
2021/07/02 04:39:15;;;;;;;17.30;6.83;;;;;;;15.98;100.00;100653.00;5096106;28;20223;-73
2021/07/02 04:41:40;;;;;;;15.63;7.10;;;;;;;16.03;100.00;100661.63;5096285;28;20243;-73
2021/07/02 04:44:05;;;;;;;14.37;8.00;;;;;;;16.05;100.00;100662.34;5096060;28;20224;-74
2021/07/02 04:46:31;;;;;;;12.40;7.07;;;;;;;16.09;99.58;100658.44;5096346;28;20174;-74
2021/07/02 04:48:56;;;;;;;15.40;6.93;;;;;;;16.09;100.00;100655.75;5079322;28;20173;-76
2021/07/02 04:51:21;;;;;;;18.90;8.57;;;;;;;16.12;100.00;100655.50;5096132;28;20197;-75
2021/07/02 04:53:47;;;;;;;17.77;8.20;;;;;;;16.15;99.60;100655.25;5079409;28;20576;-77
2021/07/02 04:56:13;;;;;;;19.60;6.90;;;;;;;16.14;99.64;100648.16;5096806;28;20641;-74
2021/07/02 04:58:40;;;;;;;18.07;7.07;;;;;;;16.14;99.63;100648.16;5096358;28;20621;-74
2021/07/02 05:01:05;;;;;;;19.93;8.70;;;;;;;16.13;99.93;100652.69;5095884;28;20193;-74
2021/07/02 05:03:31;;;;;;;11.47;6.53;;;;;;;16.14;98.89;100661.63;5096021;28;20230;-73
2021/07/02 05:05:56;;;;;;;27.03;7.83;;;;;;;16.19;98.78;100657.59;5079220;28;20220;-75
2021/07/02 05:08:24;;;;;;;14.63;7.23;;;;;;;16.17;98.99;100658.69;5114093;28;20177;-74
2021/07/02 05:10:49;;;;;;;11.33;6.67;;;;;;;16.27;98.53;100654.28;5095749;28;20193;-73
2021/07/02 05:13:14;;;;;;;17.33;7.37;;;;;;;16.26;98.59;100660.66;5114711;28;20645;-72
2021/07/02 05:15:40;;;;;;;13.03;7.47;;;;;;;16.19;99.13;100657.59;5079215;28;20210;-74
2021/07/02 05:18:05;;;;;;;16.07;6.77;;;;;;;16.23;98.64;100653.66;5095702;28;20687;-73
2021/07/02 05:20:30;;;;;;;14.43;7.80;;;;;;;16.30;97.86;100663.94;5095668;28;20201;-73
2021/07/02 05:22:55;;;;;;;20.43;11.33;;;;;;;16.34;98.10;100666.28;5095510;28;20184;-73
2021/07/02 05:25:21;;;;;;;12.90;6.67;;;;;;;16.41;97.02;100666.66;5078620;28;20205;-74
2021/07/02 05:27:46;;;;;;;9.73;7.03;;;;;;;16.40;97.19;100665.81;5078936;28;20264;-69
2021/07/02 05:30:12;;;;;;;15.67;7.67;;;;;;;16.50;96.78;100674.84;5078666;28;20197;-69
2021/07/02 05:32:38;;;;;;;15.20;8.07;;;;;;;16.62;96.32;100658.69;5113639;28;20177;-69
2021/07/02 05:35:04;;;;;;;14.33;7.70;;;;;;;16.70;95.91;100670.56;5078908;28;20652;-70
2021/07/02 05:37:29;;;;;;;11.87;6.20;;;;;;;16.88;94.68;100663.72;5095576;28;20240;-70
2021/07/02 05:39:55;;;;;;;14.60;6.10;;;;;;;17.03;95.07;100672.38;5078478;28;20208;-70
2021/07/02 05:42:23;;;;;;;10.87;6.30;;;;;;;17.16;92.88;100666.84;5113757;28;20178;-77
2021/07/02 05:44:48;;;;;;;14.47;6.10;;;;;;;17.27;92.47;100660.53;5097183;28;20235;-77
2021/07/02 05:47:14;;;;;;;15.50;6.00;;;;;;;17.24;91.60;100667.03;5097320;28;20170;-77
2021/07/02 05:49:39;;;;;;;10.70;5.50;;;;;;;17.26;91.30;100669.63;5096961;28;20211;-77
2021/07/02 05:52:05;;;;;;;7.47;5.20;;;;;;;17.36;91.87;100673.25;5115515;28;20711;-77
2021/07/02 05:54:30;;;;;;;13.40;5.50;;;;;;;17.36;90.95;100674.09;5096893;28;20235;-77
2021/07/02 05:56:55;;;;;;;9.90;4.70;;;;;;;17.43;89.59;100675.28;5097181;28;20186;-77
2021/07/02 05:59:21;;;;;;;10.23;5.60;;;;;;;17.58;88.78;100678.56;5080646;28;20202;-78
2021/07/02 06:01:46;;;;;;;6.93;5.30;;;;;;;17.49;89.01;100682.91;5114788;28;20197;-76
2021/07/02 06:04:11;;;;;;;12.43;5.17;;;;;;;17.49;88.38;100679.34;5080367;28;20201;-77
2021/07/02 06:06:37;;;;;;;9.50;5.33;;;;;;;17.46;90.09;100676.88;5079914;28;20177;-77
2021/07/02 06:09:02;;;;;;;10.63;5.70;;;;;;;17.56;88.90;100685.94;5097113;28;20211;-77
2021/07/02 06:11:27;;;;;;;10.10;5.43;;;;;;;17.43;88.56;100688.78;5097134;28;20194;-77
2021/07/02 06:13:53;;;;;;;12.20;5.70;;;;;;;17.41;89.66;100687.19;5079968;28;20193;-76
2021/07/02 06:16:18;;;;;;;8.83;4.80;;;;;;;17.45;90.10;100694.06;5096836;28;20636;-77
2021/07/02 06:18:43;;;;;;;13.83;5.20;;;;;;;17.54;88.25;100692.44;5116282;28;20644;-75
2021/07/02 06:21:09;;;;;;;11.53;5.07;;;;;;;17.92;87.18;100692.78;5096562;28;20673;-75
2021/07/02 06:23:35;;;;;;;9.37;5.53;;;;;;;17.92;87.57;100703.59;5079474;28;20543;-76
2021/07/02 06:26:04;;;;;;;8.63;4.47;;;;;;;18.05;85.09;100700.66;5079423;28;20201;-77
2021/07/02 06:28:29;;;;;;;9.97;4.67;;;;;;;18.07;85.07;100690.59;5095587;28;20286;-77
2021/07/02 06:30:55;;;;;;;11.83;4.77;;;;;;;18.05;85.99;100706.94;5099168;28;20197;-77
2021/07/02 06:33:22;;;;;;;11.40;5.40;;;;;;;18.02;86.17;100701.78;5084485;28;20181;-77
2021/07/02 06:35:47;;;;;;;6.80;4.43;;;;;;;18.12;86.04;100699.16;5100977;28;20235;-76
2021/07/02 06:38:13;;;;;;;8.47;4.83;;;;;;;18.44;83.57;100710.72;5080187;28;20181;-77
2021/07/02 06:40:38;;;;;;;7.87;4.30;;;;;;;18.58;83.10;100706.78;5083358;28;20219;-77
2021/07/02 06:43:03;;;;;;;9.37;5.20;;;;;;;18.54;83.75;100708.03;5120949;28;20265;-78
2021/07/02 06:45:29;;;;;;;12.13;4.47;;;;;;;18.38;81.13;100702.28;5121493;28;20265;-76
2021/07/02 06:47:56;;;;;;;15.93;5.07;;;;;;;18.33;82.59;100712.66;5103483;28;20189;-77
2021/07/02 06:50:23;;;;;;;10.97;4.20;;;;;;;18.40;82.12;100703.88;5102786;28;20177;-77
2021/07/02 06:52:49;;;;;;;9.97;4.43;;;;;;;18.82;80.66;100706.50;5109108;28;20248;-77
2021/07/02 06:55:14;;;;;;;10.50;4.93;;;;;;;18.85;80.28;100708.06;5084861;28;20245;-77
2021/07/02 06:57:39;;;;;;;9.40;4.13;;;;;;;18.55;79.46;100709.75;5100735;28;20173;-75
2021/07/02 07:00:06;;;;;;;9.17;4.20;;;;;;;18.75;79.77;100718.84;5100831;28;20185;-76
2021/07/02 07:02:31;;;;;;;9.90;4.90;;;;;;;18.73;79.92;100708.19;5119624;28;20231;-76
2021/07/02 07:04:56;;;;;;;14.97;4.17;;;;;;;18.51;79.62;100712.88;5119341;28;20248;-76
2021/07/02 07:07:22;;;;;;;8.73;4.50;;;;;;;18.47;80.09;100709.59;5121302;28;20173;-76
2021/07/02 07:09:47;;;;;;;8.60;4.33;;;;;;;18.57;80.47;100717.72;5085471;28;20693;-75
2021/07/02 07:12:12;;;;;;;6.33;4.60;;;;;;;18.61;79.75;100719.19;5104152;28;20199;-77
2021/07/02 07:14:38;;;;;;;10.57;6.53;;;;;;;18.66;77.68;100708.88;5122344;28;20165;-77
2021/07/02 07:17:09;;;;;;;7.07;4.67;;;;;;;18.82;77.46;100701.09;5121367;28;20170;-75
2021/07/02 07:19:35;;;;;;;6.90;4.23;;;;;;;18.73;77.32;100701.91;5123189;28;20141;-76
2021/07/02 07:22:01;;;;;;;8.83;4.20;;;;;;;18.52;77.85;100706.47;5122133;28;20158;-75
2021/07/02 07:24:26;;;;;;;12.03;4.50;;;;;;;18.52;78.88;100695.66;5104636;28;20208;-76
2021/07/02 07:26:51;;;;;;;9.87;4.00;;;;;;;18.68;80.00;100707.75;5120964;28;20181;-76
2021/07/02 07:29:16;;;;;;;14.27;5.27;;;;;;;18.84;77.55;100711.75;5118047;28;20223;-76
2021/07/02 07:31:42;;;;;;;11.97;4.50;;;;;;;19.03;77.07;100714.53;5081839;28;20565;-75
2021/07/02 07:34:07;;;;;;;11.20;4.40;;;;;;;19.09;76.04;100713.97;5099153;28;20592;-75
2021/07/02 07:36:35;;;;;;;12.73;4.30;;;;;;;19.22;75.57;100719.13;5098767;28;20537;-76
2021/07/02 07:39:00;;;;;;;10.43;4.60;;;;;;;19.43;74.91;100721.75;5081639;28;20174;-76
2021/07/02 07:41:25;;;;;;;7.00;4.07;;;;;;;19.55;74.06;100729.63;5080996;28;20249;-76
2021/07/02 07:43:51;;;;;;;10.23;4.13;;;;;;;19.40;74.57;100727.44;5081511;28;20274;-76
2021/07/02 07:46:17;;;;;;;12.40;4.37;;;;;;;19.31;73.67;100729.09;5081680;28;20196;-77
2021/07/02 07:48:42;;;;;;;5.67;4.17;;;;;;;19.53;72.64;100718.06;5098754;28;20657;-76
2021/07/02 07:51:18;;;;;;;9.10;3.87;;;;;;;19.70;73.55;100724.66;5098416;28;20221;-76
2021/07/02 07:53:43;;;;;;;9.20;4.20;;;;;;;19.75;72.87;100721.50;5098214;28;20162;-76
2021/07/02 07:56:09;;;;;;;15.77;4.10;;;;;;;19.75;72.00;100718.81;5116134;28;20578;-76
2021/07/02 07:58:34;;;;;;;7.67;4.20;;;;;;;19.43;73.24;100717.19;5081438;28;20173;-76
2021/07/02 08:00:59;;;;;;;13.03;4.73;;;;;;;19.30;72.06;100727.41;5097337;28;20268;-76
2021/07/02 08:03:24;;;;;;;5.67;3.73;;;;;;;19.41;72.13;100724.59;5099391;28;20177;-76
2021/07/02 08:05:50;;;;;;;11.77;6.33;;;;;;;19.79;70.90;100726.50;5099265;28;20225;-76
2021/07/02 08:08:16;;;;;;;6.17;4.03;;;;;;;19.99;69.58;100725.47;5080750;28;20264;-77
2021/07/02 08:10:42;;;;;;;11.77;6.47;;;;;;;19.81;70.85;100726.34;5097746;28;20531;-74
2021/07/02 08:13:07;;;;;;;13.27;6.50;;;;;;;20.08;70.60;100725.63;5097808;28;20184;-77
2021/07/02 08:15:32;;;;;;;11.30;5.60;;;;;;;19.95;68.85;100739.44;5080682;28;20174;-76
2021/07/02 08:17:57;;;;;;;6.73;4.47;;;;;;;19.70;68.34;100740.00;5097814;28;20193;-76
2021/07/02 08:20:23;;;;;;;10.53;5.17;;;;;;;19.74;69.29;100731.50;5081238;28;20205;-75
2021/07/02 08:22:48;;;;;;;15.80;5.27;;;;;;;20.03;68.90;100727.88;5080168;28;20177;-75
2021/07/02 08:25:13;;;;;;;15.27;3.97;;;;;;;20.15;68.58;100737.59;5081248;28;20264;-76
2021/07/02 08:30:22;;;;;;;11.93;5.73;;;;;;;20.20;69.38;100736.16;5100584;28;20581;-76
2021/07/02 08:32:48;;;;;;;15.70;6.20;;;;;;;20.53;69.15;100734.81;5080493;28;20170;-76
2021/07/02 08:35:15;;;;;;;9.90;4.30;;;;;;;20.50;67.95;100734.25;5098202;28;20610;-75
2021/07/02 08:37:41;;;;;;;7.53;4.60;;;;;;;20.53;68.39;100739.38;5116239;28;20172;-75
2021/07/02 08:40:06;;;;;;;6.57;4.77;;;;;;;20.63;67.43;100745.63;5097985;28;20190;-74
2021/07/02 08:42:32;;;;;;;7.57;4.77;;;;;;;20.82;66.57;100750.13;5097197;28;20178;-75
2021/07/02 08:44:57;;;;;;;7.83;4.93;;;;;;;20.86;66.67;100743.41;5080419;28;20205;-75
2021/07/02 08:47:22;;;;;;;11.23;5.30;;;;;;;20.68;66.86;100745.16;5098266;28;20173;-75
2021/07/02 08:49:48;;;;;;;10.33;4.90;;;;;;;20.48;67.19;100747.09;5080982;28;20200;-75
2021/07/02 08:52:13;;;;;;;10.33;4.93;;;;;;;20.40;67.26;100739.69;5084848;28;20173;-75
2021/07/02 08:54:39;;;;;;;9.70;4.77;;;;;;;20.91;65.27;100743.81;5090951;28;20166;-75
2021/07/02 08:57:04;;;;;;;7.17;4.67;;;;;;;20.76;66.42;100751.56;5086238;28;20199;-75
2021/07/02 08:59:30;;;;;;;7.67;4.93;;;;;;;20.46;67.13;100740.97;5096225;28;20165;-75
2021/07/02 09:01:55;;;;;;;7.87;4.20;;;;;;;20.52;67.92;100745.81;5084204;28;20218;-75
2021/07/02 09:04:29;;;;;;;8.03;4.83;;;;;;;20.48;67.42;100747.09;5098637;28;20193;-74
2021/07/02 09:07:02;;;;;;;7.30;4.80;;;;;;;20.61;66.80;100744.91;5100545;28;20154;-75
2021/07/02 09:09:56;;;;;;;12.97;4.63;;;;;;;20.72;65.95;100735.72;5081272;28;20201;-75
2021/07/02 09:12:29;;;;;;;7.43;5.07;;;;;;;20.77;65.41;100745.13;5104822;28;20172;-75
2021/07/02 09:15:09;;;;;;;8.83;4.70;;;;;;;20.74;66.90;100742.72;5098228;28;20203;-75
2021/07/02 09:17:51;;;;;;;8.33;4.60;;;;;;;21.10;64.71;100745.56;5102685;28;20164;-74
2021/07/02 09:20:24;;;;;;;9.17;4.87;;;;;;;21.16;63.10;100753.09;5100459;28;20237;-75
2021/07/02 09:23:01;;;;;;;6.37;4.50;;;;;;;21.59;63.00;100751.59;5103075;28;20154;-74
2021/07/02 09:25:38;;;;;;;7.73;4.83;;;;;;;21.77;61.63;100747.00;5106280;28;20197;-74
2021/07/02 09:28:06;;;;;;;8.33;4.00;;;;;;;21.71;62.00;100750.34;5122272;28;20541;-75
2021/07/02 09:30:37;;;;;;;8.57;4.27;;;;;;;21.68;61.92;100746.06;5124218;28;20189;-76
2021/07/02 09:33:09;;;;;;;7.73;4.37;;;;;;;20.93;64.57;100747.22;5088008;28;20256;-75
2021/07/02 09:35:50;;;;;;;8.67;5.10;;;;;;;20.76;66.23;100746.13;5102492;28;20253;-75
2021/07/02 09:38:18;;;;;;;9.67;4.90;;;;;;;20.67;66.48;100757.88;5103751;28;20165;-74
2021/07/02 09:40:45;;;;;;;10.33;4.90;;;;;;;20.70;64.93;100754.88;5099297;28;20326;-73
2021/07/02 09:43:16;;;;;;;10.80;4.20;;;;;;;21.33;64.28;100749.59;5097865;28;20173;-75
2021/07/02 09:45:53;;;;;;;7.80;4.43;;;;;;;21.28;62.57;100751.06;5104728;28;20205;-75
2021/07/02 09:48:20;;;;;;;6.80;4.37;;;;;;;21.17;62.58;100760.22;5086868;28;20188;-76
2021/07/02 09:50:50;;;;;;;7.87;4.33;;;;;;;20.91;62.12;100749.22;5104046;28;20186;-75
2021/07/02 09:53:22;;;;;;;6.50;4.07;;;;;;;20.98;63.02;100758.47;5122725;28;20160;-75
2021/07/02 09:55:55;;;;;;;10.13;7.37;;;;;;;21.35;62.77;100758.44;5123267;28;20154;-75
2021/07/02 09:58:27;;;;;;;8.37;4.93;;;;;;;21.14;61.14;100763.25;5102996;28;20135;-73
2021/07/02 10:00:55;;;;;;;6.33;4.10;;;;;;;20.92;60.11;100772.66;5098410;28;20193;-74
2021/07/02 10:03:31;;;;;;;5.73;4.00;;;;;;;21.09;60.31;100755.56;5119115;28;20166;-74
2021/07/02 10:06:00;;;;;;;5.60;3.90;;;;;;;21.49;60.21;100755.19;5098996;28;20196;-74
2021/07/02 10:08:28;;;;;;;6.83;4.97;;;;;;;21.61;58.90;100763.16;5083618;28;20173;-74
2021/07/02 10:10:55;;;;;;;7.67;4.27;;;;;;;22.15;58.90;100760.28;5089775;28;20602;-74
2021/07/02 10:13:23;;;;;;;12.07;4.63;;;;;;;22.18;57.32;100750.09;5105121;28;20285;-74
2021/07/02 10:15:50;;;;;;;9.13;4.50;;;;;;;21.81;57.31;100770.13;5084295;28;20238;-73
2021/07/02 10:18:16;;;;;;;12.40;4.20;;;;;;;21.61;57.94;100774.00;5099521;28;20724;-75
2021/07/02 10:20:42;;;;;;;6.67;4.40;;;;;;;21.83;58.45;100766.25;5092345;22;20226;-71
2021/07/02 10:23:08;;;;;;;8.13;4.13;;;;;;;22.06;57.33;100769.38;5076899;28;20253;-71
2021/07/02 10:25:33;;;;;;;7.50;4.37;;;;;;;22.10;56.86;100770.78;5058934;28;20631;-71
2021/07/02 10:27:59;;;;;;;6.30;4.67;;;;;;;22.22;57.41;100767.78;5076663;28;20171;-71
2021/07/02 10:30:25;;;;;;;7.90;4.50;;;;;;;22.27;57.42;100773.63;5077031;28;20199;-72
2021/07/02 10:32:56;;;;;;;9.97;5.50;;;;;;;22.48;56.74;100751.50;5075407;28;20190;-72
2021/07/02 10:35:21;;;;;;;6.37;4.40;;;;;;;22.54;57.23;100761.75;5075570;28;20155;-72
2021/07/02 10:37:52;;;;;;;6.47;4.07;;;;;;;22.78;54.82;100760.03;5058832;28;20508;-71
2021/07/02 10:40:21;;;;;;;7.33;4.63;;;;;;;22.77;53.67;100757.47;5058600;28;20570;-72
2021/07/02 10:43:06;;;;;;;5.33;4.20;;;;;;;22.98;53.67;100754.38;5076570;28;20204;-71
2021/07/02 10:45:32;;;;;;;7.07;4.20;;;;;;;23.04;50.81;100753.72;5041768;28;20289;-72
2021/07/02 10:47:57;;;;;;;7.07;3.73;;;;;;;23.44;51.27;100744.00;5076279;28;20282;-72
2021/07/02 10:50:37;;;;;;;6.83;3.93;;;;;;;23.43;52.51;100751.31;5058079;28;20666;-72
2021/07/02 10:53:24;;;;;;;9.00;4.27;;;;;;;23.48;52.97;100761.72;5058354;28;20301;-72
2021/07/02 10:55:50;;;;;;;15.93;4.43;;;;;;;23.50;52.05;100755.09;5075554;28;20167;-71
2021/07/02 10:58:15;;;;;;;7.73;4.97;;;;;;;23.33;51.52;100751.44;5075481;28;20190;-71
2021/07/02 11:01:06;;;;;;;5.97;4.70;;;;;;;23.92;50.32;100755.00;5075215;28;20195;-72
2021/07/02 11:03:31;;;;;;;13.40;4.40;;;;;;;24.14;49.36;100752.59;5076442;28;20600;-72
2021/07/02 11:05:56;;;;;;;5.77;4.30;;;;;;;24.18;50.20;100737.63;5075230;28;20199;-72
2021/07/02 11:08:44;;;;;;;9.53;4.37;;;;;;;23.80;51.55;100750.91;5059226;28;20293;-71
2021/07/02 11:11:09;;;;;;;4.13;3.70;;;;;;;24.13;48.81;100746.31;5058029;28;20198;-71
2021/07/02 11:14:07;;;;;;;7.33;3.87;;;;;;;24.04;49.96;100755.50;5075061;28;20175;-71
2021/07/02 11:16:33;;;;;;;15.53;6.43;;;;;;;25.41;46.44;100756.25;5075384;28;20185;-71
2021/07/02 11:19:25;;;;;;;8.63;6.07;;;;;;;25.22;47.35;100754.78;5077774;28;20178;-71